Destinations Genoa Cristoforo Colombo Airport
Speedy Airlines destination Genoa
Photo by Rachel Claire
Book now
Flights starting at € 58.72 Book flight

Flights to Genoa Cristoforo Colombo Airport

Flight number From ETE Dispatch
SPY-414 EHGG Groningen Airport Eelde 02:00

Flights from Genoa Cristoforo Colombo Airport

Flight number To ETE Dispatch
SPY-415 EHGG Groningen Airport Eelde 02:05
About

Genoa Cristoforo Colombo Airport facts

Genoa Cristoforo Colombo Airport is located in Genoa at an elevation of 4.0 meters or 13 feet.

Currently, Speedy Airlines serves 2 flights to and from Genoa Cristoforo Colombo Airport.

Detailed airport info

Route map

Weather

Current weather

METAR

METAR

Metar data retrieved Sunday, 21 July 2024 at 19:25 UTC

LIMJ 211850Z 24007KT CAVOK 27/23 Q1009
Wind Temperature
7 kt 27c